| time (UTC) | temp F | wind direction | speed MPH | gust MPH | rain 1hr in | rain 24hr in | rain mn in | humidity % | barometer mb |
| 20260510153059 | 66 | 238 | 5.0 | 11.0 | 0.00 | 0.43 | 0.00 | 64 | 1013.2 |
| 20260510152557 | 67 | 231 | 2.0 | 7.0 | 0.00 | 0.43 | 0.00 | 64 | 1013.1 |
| 20260510152058 | 67 | 0 | 1.0 | 11.0 | 0.00 | 0.43 | 0.00 | 68 | 1013.2 |
| 20260510151557 | 66 | 167 | 4.0 | 11.0 | 0.00 | 0.43 | 0.00 | 69 | 1013.0 |
| 20260510151057 | 66 | 225 | 0.0 | 6.0 | 0.00 | 0.43 | 0.00 | 69 | 1012.9 |
| 20260510150557 | 65 | 0 | 1.0 | 7.0 | 0.00 | 0.43 | 0.00 | 71 | 1013.0 |
| 20260510150100 | 65 | 0 | 1.0 | 10.0 | 0.00 | 0.43 | 0.00 | 68 | 1013.0 |
| 20260510145557 | 65 | 201 | 2.0 | 10.0 | 0.00 | 0.44 | 0.00 | 70 | 1013.0 |
| 20260510145059 | 65 | 215 | 4.0 | 10.0 | 0.00 | 0.44 | 0.00 | 70 | 1013.0 |
| 20260510144612 | 65 | 182 | 0.0 | 6.0 | 0.00 | 0.44 | 0.00 | 74 | 1013.0 |
| 20260510144057 | 65 | 0 | 0.0 | 6.0 | 0.00 | 0.44 | 0.00 | 75 | 1013.0 |
| 20260510143557 | 64 | 0 | 1.0 | 10.0 | 0.00 | 0.44 | 0.00 | 73 | 1013.0 |
| 20260510143058 | 63 | 228 | 2.0 | 10.0 | 0.00 | 0.44 | 0.00 | 76 | 1012.9 |
| 20260510142554 | 63 | 284 | 0.0 | 5.0 | 0.00 | 0.44 | 0.00 | 79 | 1012.9 |
| 20260510142055 | 62 | 165 | 0.0 | 5.0 | 0.00 | 0.44 | 0.00 | 80 | 1012.9 |
| 20260510141559 | 62 | 0 | 1.0 | 6.0 | 0.00 | 0.44 | 0.00 | 79 | 1012.9 |
| 20260510141058 | 61 | 0 | 1.0 | 6.0 | 0.00 | 0.44 | 0.00 | 79 | 1012.9 |
| 20260510140557 | 61 | 0 | 0.0 | 5.0 | 0.00 | 0.44 | 0.00 | 79 | 1012.9 |
| 20260510140057 | 61 | 0 | 0.0 | 5.0 | 0.00 | 0.44 | 0.00 | 79 | 1012.9 |
| 20260510135555 | 61 | 0 | 0.0 | 5.0 | 0.00 | 0.44 | 0.00 | 81 | 1012.8 |
| 20260510135055 | 60 | 0 | 0.0 | 5.0 | 0.00 | 0.44 | 0.00 | 83 | 1012.8 |
| 20260510134600 | 59 | 0 | 1.0 | 5.0 | 0.00 | 0.44 | 0.00 | 82 | 1012.7 |
| 20260510134056 | 59 | 0 | 1.0 | 5.0 | 0.00 | 0.44 | 0.00 | 83 | 1012.7 |
| 20260510133558 | 59 | 0 | 0.0 | 5.0 | 0.00 | 0.44 | 0.00 | 86 | 1012.7 |
| 20260510133106 | 58 | 246 | 0.0 | 4.0 | 0.00 | 0.44 | 0.00 | 86 | 1012.7 |
| 20260510132555 | 57 | 0 | 0.0 | 4.0 | 0.00 | 0.44 | 0.00 | 87 | 1012.8 |
| 20260510132055 | 57 | 254 | 0.0 | 4.0 | 0.00 | 0.44 | 0.00 | 89 | 1012.8 |
| 20260510131606 | 56 | 259 | 0.0 | 6.0 | 0.00 | 0.44 | 0.00 | 89 | 1012.8 |
| 20260510131055 | 55 | 0 | 1.0 | 6.0 | 0.00 | 0.44 | 0.00 | 90 | 1012.9 |
| 20260510130556 | 55 | 0 | 1.0 | 7.0 | 0.00 | 0.44 | 0.00 | 91 | 1012.9 |
| 20260510130107 | 55 | 0 | 1.0 | 7.0 | 0.00 | 0.44 | 0.00 | 92 | 1012.9 |
| 20260510125556 | 54 | 0 | 0.0 | 5.0 | 0.00 | 0.44 | 0.00 | 92 | 1012.9 |
| 20260510125055 | 54 | 221 | 0.0 | 5.0 | 0.00 | 0.44 | 0.00 | 92 | 1012.9 |
| 20260510124608 | 54 | 210 | 0.0 | 5.0 | 0.00 | 0.44 | 0.00 | 93 | 1012.9 |
| 20260510124056 | 54 | 0 | 0.0 | 4.0 | 0.00 | 0.44 | 0.00 | 92 | 1012.8 |
| 20260510123554 | 54 | 0 | 0.0 | 4.0 | 0.00 | 0.44 | 0.00 | 93 | 1012.6 |
| 20260510123111 | 53 | 240 | 0.0 | 4.0 | 0.00 | 0.44 | 0.00 | 93 | 1012.4 |
| 20260510122555 | 53 | 0 | 0.0 | 4.0 | 0.00 | 0.44 | 0.00 | 92 | 1012.2 |
| 20260510122056 | 53 | 0 | 0.0 | 4.0 | 0.00 | 0.44 | 0.00 | 93 | 1012.1 |
| 20260510121602 | 52 | 241 | 0.0 | 3.0 | 0.00 | 0.44 | 0.00 | 92 | 1012.2 |
| 20260510121055 | 53 | 276 | 0.0 | 3.0 | 0.00 | 0.44 | 0.00 | 93 | 1012.2 |
| 20260510120555 | 52 | 0 | 0.0 | 1.0 | 0.00 | 0.44 | 0.00 | 93 | 1012.1 |
| 20260510115555 | 52 | 0 | 0.0 | 3.0 | 0.00 | 0.44 | 0.00 | 93 | 1012.0 |
| 20260510115056 | 52 | 276 | 0.0 | 1.0 | 0.00 | 0.44 | 0.00 | 93 | 1011.9 |
| 20260510114620 | 51 | 0 | 0.0 | 1.0 | 0.00 | 0.44 | 0.00 | 93 | 1012.0 |
| 20260510114056 | 51 | 0 | 0.0 | 0.0 | 0.00 | 0.44 | 0.00 | 93 | 1011.9 |
| 20260510113555 | 50 | 0 | 0.0 | 2.0 | 0.00 | 0.44 | 0.00 | 93 | 1011.9 |
| 20260510112557 | 50 | 0 | 0.0 | 0.0 | 0.00 | 0.44 | 0.00 | 93 | 1011.4 |
| 20260510112057 | 49 | 0 | 0.0 | 0.0 | 0.00 | 0.44 | 0.00 | 92 | 1011.4 |
| 20260510111602 | 49 | 0 | 0.0 | 0.0 | 0.00 | 0.44 | 0.00 | 92 | 1011.5 |
| 20260510111057 | 49 | 0 | 0.0 | 0.0 | 0.00 | 0.44 | 0.00 | 92 | 1011.7 |
| 20260510110557 | 49 | 0 | 0.0 | 0.0 | 0.00 | 0.44 | 0.00 | 92 | 1011.8 |
| 20260510105557 | 49 | 0 | 0.0 | 0.0 | 0.00 | 0.44 | 0.00 | 92 | 1011.7 |
| 20260510105056 | 48 | 0 | 0.0 | 0.0 | 0.00 | 0.44 | 0.00 | 92 | 1011.7 |
| 20260510104556 | 48 | 0 | 0.0 | 0.0 | 0.00 | 0.44 | 0.00 | 92 | 1011.7 |
| 20260510104057 | 48 | 0 | 0.0 | 0.0 | 0.00 | 0.44 | 0.00 | 92 | 1011.6 |
| 20260510103557 | 48 | 0 | 0.0 | 0.0 | 0.00 | 0.44 | 0.00 | 92 | 1011.5 |
| 20260510102558 | 47 | 0 | 0.0 | 0.0 | 0.00 | 0.44 | 0.00 | 92 | 1011.5 |
| 20260510102059 | 47 | 0 | 0.0 | 0.0 | 0.00 | 0.44 | 0.00 | 92 | 1011.4 |
| 20260510101605 | 47 | 0 | 0.0 | 0.0 | 0.00 | 0.44 | 0.00 | 92 | 1011.1 |
| 20260510101057 | 47 | 0 | 0.0 | 0.0 | 0.00 | 0.44 | 0.00 | 92 | 1011.0 |
| 20260510100557 | 48 | 0 | 0.0 | 0.0 | 0.00 | 0.44 | 0.00 | 92 | 1011.0 |
| 20260510100105 | 48 | 0 | 0.0 | 0.0 | 0.00 | 0.44 | 0.00 | 92 | 1011.0 |
| 20260510095557 | 48 | 0 | 0.0 | 0.0 | 0.00 | 0.44 | 0.00 | 92 | 1011.2 |
| 20260510095058 | 48 | 0 | 0.0 | 0.0 | 0.00 | 0.44 | 0.00 | 92 | 1011.2 |
| 20260510094557 | 48 | 0 | 0.0 | 0.0 | 0.00 | 0.44 | 0.00 | 92 | 1011.1 |
| 20260510094058 | 48 | 0 | 0.0 | 0.0 | 0.00 | 0.44 | 0.00 | 92 | 1011.2 |
| 20260510093557 | 48 | 0 | 0.0 | 0.0 | 0.00 | 0.44 | 0.00 | 92 | 1011.2 |
| 20260510093056 | 48 | 0 | 0.0 | 0.0 | 0.00 | 0.44 | 0.00 | 92 | 1011.2 |
| 20260510092558 | 49 | 0 | 0.0 | 0.0 | 0.00 | 0.44 | 0.00 | 92 | 1011.2 |
| 20260510092058 | 49 | 0 | 0.0 | 0.0 | 0.00 | 0.44 | 0.00 | 92 | 1011.2 |
| 20260510091558 | 49 | 0 | 0.0 | 0.0 | 0.00 | 0.44 | 0.00 | 92 | 1011.2 |
| 20260510091057 | 49 | 0 | 0.0 | 0.0 | 0.00 | 0.44 | 0.00 | 92 | 1011.3 |
| 20260510090557 | 49 | 0 | 0.0 | 2.0 | 0.00 | 0.44 | 0.00 | 92 | 1011.2 |
| 20260510090057 | 49 | 0 | 0.0 | 2.0 | 0.00 | 0.44 | 0.00 | 92 | 1011.3 |
| 20260510085557 | 49 | 0 | 0.0 | 2.0 | 0.00 | 0.44 | 0.00 | 92 | 1011.2 |
| 20260510085059 | 49 | 0 | 0.0 | 2.0 | 0.00 | 0.44 | 0.00 | 92 | 1011.3 |
| 20260510084610 | 49 | 0 | 0.0 | 3.0 | 0.00 | 0.44 | 0.00 | 92 | 1011.3 |
| 20260510084057 | 49 | 0 | 0.0 | 3.0 | 0.00 | 0.44 | 0.00 | 92 | 1011.4 |
| 20260510083559 | 49 | 0 | 0.0 | 3.0 | 0.00 | 0.44 | 0.00 | 92 | 1011.4 |
| 20260510083055 | 49 | 0 | 0.0 | 0.0 | 0.00 | 0.44 | 0.00 | 92 | 1011.6 |
| 20260510082554 | 49 | 0 | 0.0 | 2.0 | 0.00 | 0.44 | 0.00 | 92 | 1011.6 |
| 20260510082055 | 49 | 0 | 0.0 | 2.0 | 0.00 | 0.44 | 0.00 | 92 | 1011.7 |
| 20260510081602 | 49 | 0 | 0.0 | 2.0 | 0.00 | 0.44 | 0.00 | 92 | 1011.7 |
| 20260510081056 | 49 | 0 | 0.0 | 3.0 | 0.00 | 0.44 | 0.00 | 92 | 1011.7 |
| 20260510080555 | 49 | 0 | 0.0 | 3.0 | 0.00 | 0.44 | 0.00 | 92 | 1011.6 |
| 20260510080104 | 49 | 0 | 0.0 | 2.0 | 0.00 | 0.44 | 0.00 | 92 | 1011.7 |
| 20260510075555 | 48 | 0 | 0.0 | 2.0 | 0.00 | 0.44 | 0.00 | 92 | 1011.6 |
| 20260510075055 | 48 | 0 | 0.0 | 5.0 | 0.00 | 0.44 | 0.00 | 92 | 1011.5 |
| 20260510074558 | 48 | 0 | 0.0 | 5.0 | 0.00 | 0.44 | 0.00 | 92 | 1011.5 |
| 20260510074055 | 48 | 288 | 2.0 | 4.0 | 0.00 | 0.44 | 0.00 | 91 | 1011.4 |
| 20260510073555 | 49 | 0 | 0.0 | 0.0 | 0.00 | 0.44 | 0.00 | 92 | 1010.8 |
| 20260510073059 | 49 | 0 | 0.0 | 0.0 | 0.00 | 0.44 | 0.00 | 92 | 1010.7 |
| 20260510072555 | 49 | 0 | 0.0 | 0.0 | 0.00 | 0.44 | 0.00 | 92 | 1010.6 |
| 20260510072054 | 49 | 0 | 0.0 | 0.0 | 0.00 | 0.44 | 0.00 | 92 | 1010.6 |
| 20260510071555 | 49 | 0 | 0.0 | 0.0 | 0.00 | 0.44 | 0.00 | 92 | 1010.6 |
| 20260510071055 | 49 | 0 | 0.0 | 0.0 | 0.00 | 0.44 | 0.00 | 92 | 1010.6 |
| 20260510070556 | 49 | 0 | 0.0 | 0.0 | 0.00 | 0.44 | 0.00 | 92 | 1010.6 |
| 20260510070113 | 49 | 0 | 0.0 | 0.0 | 0.00 | 0.44 | 0.00 | 92 | 1010.7 |
| 20260510065559 | 49 | 0 | 0.0 | 0.0 | 0.00 | 0.44 | 0.00 | 92 | 1010.8 |
| 20260510065055 | 49 | 0 | 0.0 | 0.0 | 0.00 | 0.44 | 0.00 | 92 | 1010.8 |
| 20260510064558 | 49 | 0 | 0.0 | 0.0 | 0.00 | 0.44 | 0.00 | 92 | 1010.9 |
| 20260510064055 | 50 | 0 | 0.0 | 0.0 | 0.00 | 0.44 | 0.00 | 92 | 1010.9 |
| 20260510063555 | 50 | 0 | 0.0 | 0.0 | 0.00 | 0.44 | 0.00 | 92 | 1011.0 |
| 20260510063055 | 50 | 0 | 0.0 | 3.0 | 0.00 | 0.44 | 0.00 | 92 | 1011.0 |
| 20260510062556 | 50 | 0 | 0.0 | 3.0 | 0.00 | 0.44 | 0.00 | 92 | 1011.1 |
| 20260510062055 | 50 | 0 | 0.0 | 3.0 | 0.00 | 0.44 | 0.00 | 92 | 1011.2 |
| 20260510061559 | 50 | 0 | 0.0 | 2.0 | 0.00 | 0.44 | 0.00 | 92 | 1011.2 |
| 20260510061055 | 50 | 43 | 0.0 | 1.0 | 0.00 | 0.44 | 0.00 | 92 | 1011.2 |
| 20260510060556 | 50 | 0 | 0.0 | 0.0 | 0.00 | 0.44 | 0.00 | 92 | 1011.2 |
| 20260510060059 | 50 | 0 | 0.0 | 0.0 | 0.00 | 0.44 | 0.00 | 92 | 1011.0 |
| 20260510055555 | 50 | 0 | 0.0 | 0.0 | 0.00 | 0.44 | 0.00 | 92 | 1010.8 |
| 20260510055058 | 50 | 0 | 0.0 | 0.0 | 0.00 | 0.44 | 0.00 | 92 | 1010.8 |
| 20260510054601 | 50 | 0 | 0.0 | 0.0 | 0.00 | 0.44 | 0.00 | 92 | 1010.6 |
| 20260510054055 | 50 | 0 | 0.0 | 0.0 | 0.00 | 0.44 | 0.00 | 92 | 1010.6 |
| 20260510053555 | 50 | 0 | 0.0 | 0.0 | 0.00 | 0.44 | 0.00 | 92 | 1010.8 |
| 20260510053059 | 50 | 0 | 0.0 | 0.0 | 0.00 | 0.44 | 0.00 | 92 | 1010.7 |
| 20260510052555 | 50 | 0 | 0.0 | 0.0 | 0.00 | 0.44 | 0.00 | 92 | 1010.7 |
| 20260510052055 | 49 | 0 | 0.0 | 2.0 | 0.00 | 0.44 | 0.00 | 92 | 1010.7 |
| 20260510051607 | 49 | 0 | 0.0 | 2.0 | 0.00 | 0.44 | 0.00 | 92 | 1010.8 |
| 20260510051058 | 49 | 0 | 0.0 | 0.0 | 0.00 | 0.44 | 0.00 | 92 | 1010.7 |
| 20260510050603 | 49 | 0 | 0.0 | 0.0 | 0.00 | 0.44 | 0.00 | 92 | 1010.6 |
| 20260510050108 | 49 | 0 | 0.0 | 0.0 | 0.00 | 0.44 | 0.00 | 92 | 1010.8 |
| 20260510045559 | 49 | 0 | 0.0 | 0.0 | 0.00 | 0.44 | 0.00 | 92 | 1010.6 |
| 20260510045057 | 49 | 0 | 0.0 | 0.0 | 0.00 | 0.44 | 0.00 | 92 | 1010.8 |
| 20260510044555 | 49 | 0 | 0.0 | 0.0 | 0.00 | 0.44 | 0.00 | 92 | 1010.8 |
| 20260510044057 | 49 | 0 | 0.0 | 0.0 | 0.00 | 0.44 | 0.00 | 92 | 1010.8 |
| 20260510043558 | 49 | 0 | 0.0 | 0.0 | 0.00 | 0.44 | 0.00 | 92 | 1010.9 |
| 20260510043055 | 49 | 0 | 0.0 | 0.0 | 0.00 | 0.44 | 0.00 | 92 | 1010.8 |
| 20260510042557 | 49 | 0 | 0.0 | 0.0 | 0.00 | 0.44 | 0.00 | 92 | 1010.9 |
| 20260510042057 | 49 | 0 | 0.0 | 0.0 | 0.00 | 0.44 | 0.00 | 91 | 1010.9 |
| 20260510041605 | 49 | 0 | 0.0 | 0.0 | 0.00 | 0.44 | 0.00 | 91 | 1011.0 |
| 20260510041057 | 49 | 0 | 0.0 | 0.0 | 0.00 | 0.44 | 0.00 | 91 | 1011.0 |
| 20260510040557 | 49 | 0 | 0.0 | 0.0 | 0.00 | 0.44 | 0.00 | 91 | 1011.1 |
| 20260510040105 | 49 | 0 | 0.0 | 0.0 | 0.00 | 0.44 | 0.00 | 91 | 1011.1 |
| 20260510035557 | 49 | 0 | 0.0 | 0.0 | 0.00 | 0.44 | 0.44 | 92 | 1011.0 |
| 20260510035100 | 49 | 0 | 0.0 | 0.0 | 0.00 | 0.44 | 0.44 | 92 | 1011.0 |
| 20260510034557 | 49 | 0 | 0.0 | 0.0 | 0.00 | 0.44 | 0.44 | 92 | 1011.1 |
| 20260510034057 | 48 | 0 | 0.0 | 0.0 | 0.00 | 0.44 | 0.44 | 92 | 1010.9 |
| 20260510033557 | 48 | 0 | 0.0 | 0.0 | 0.00 | 0.44 | 0.44 | 91 | 1010.8 |
| 20260510033103 | 48 | 0 | 0.0 | 0.0 | 0.00 | 0.44 | 0.44 | 91 | 1010.6 |
| 20260510032600 | 48 | 0 | 0.0 | 0.0 | 0.00 | 0.44 | 0.44 | 91 | 1010.6 |
| 20260510032057 | 48 | 0 | 0.0 | 0.0 | 0.00 | 0.44 | 0.44 | 91 | 1010.8 |
| 20260510031603 | 48 | 0 | 0.0 | 0.0 | 0.00 | 0.44 | 0.44 | 91 | 1010.8 |
| 20260510031058 | 48 | 0 | 0.0 | 0.0 | 0.00 | 0.44 | 0.44 | 95 | 1010.7 |
| 20260510030600 | 48 | 0 | 0.0 | 0.0 | 0.00 | 0.44 | 0.44 | 91 | 1010.8 |
| 20260510030100 | 47 | 0 | 0.0 | 0.0 | 0.00 | 0.44 | 0.44 | 91 | 1010.7 |
| 20260510025557 | 47 | 0 | 0.0 | 0.0 | 0.00 | 0.44 | 0.44 | 91 | 1010.6 |
| 20260510025100 | 47 | 0 | 0.0 | 0.0 | 0.00 | 0.44 | 0.44 | 91 | 1010.5 |
| 20260510024557 | 47 | 0 | 0.0 | 0.0 | 0.00 | 0.44 | 0.44 | 91 | 1010.4 |
| 20260510024057 | 47 | 0 | 0.0 | 0.0 | 0.00 | 0.44 | 0.44 | 91 | 1010.4 |
| 20260510023557 | 47 | 0 | 0.0 | 0.0 | 0.00 | 0.44 | 0.44 | 91 | 1010.6 |
| 20260510023058 | 46 | 0 | 0.0 | 0.0 | 0.00 | 0.44 | 0.44 | 91 | 1010.4 |
| 20260510022559 | 46 | 0 | 0.0 | 0.0 | 0.00 | 0.44 | 0.44 | 90 | 1010.4 |
| 20260510022057 | 46 | 0 | 0.0 | 0.0 | 0.00 | 0.44 | 0.44 | 90 | 1010.6 |
| 20260510021645 | 46 | 0 | 0.0 | 0.0 | 0.00 | 0.44 | 0.44 | 90 | 1010.5 |
| 20260510021057 | 46 | 0 | 0.0 | 0.0 | 0.00 | 0.44 | 0.44 | 90 | 1010.4 |
| 20260510020557 | 46 | 0 | 0.0 | 0.0 | 0.00 | 0.44 | 0.44 | 90 | 1010.4 |
| 20260510020101 | 46 | 0 | 0.0 | 0.0 | 0.00 | 0.44 | 0.44 | 89 | 1010.5 |
| 20260510015557 | 46 | 0 | 0.0 | 0.0 | 0.00 | 0.44 | 0.44 | 89 | 1010.5 |
| 20260510015058 | 46 | 0 | 0.0 | 0.0 | 0.00 | 0.44 | 0.44 | 89 | 1010.6 |
| 20260510014600 | 46 | 0 | 0.0 | 0.0 | 0.00 | 0.44 | 0.44 | 89 | 1010.6 |
| 20260510014055 | 46 | 0 | 0.0 | 0.0 | 0.00 | 0.44 | 0.44 | 89 | 1010.4 |
| 20260510013556 | 47 | 0 | 0.0 | 0.0 | 0.00 | 0.44 | 0.44 | 89 | 1010.4 |
| 20260510013114 | 47 | 0 | 0.0 | 0.0 | 0.00 | 0.44 | 0.44 | 89 | 1010.4 |
| 20260510012556 | 47 | 0 | 0.0 | 0.0 | 0.00 | 0.44 | 0.44 | 89 | 1010.3 |
| 20260510012055 | 47 | 0 | 0.0 | 0.0 | 0.00 | 0.44 | 0.44 | 89 | 1010.3 |
| 20260510011555 | 47 | 0 | 0.0 | 0.0 | 0.00 | 0.44 | 0.44 | 89 | 1010.4 |
| 20260510011055 | 48 | 0 | 0.0 | 0.0 | 0.00 | 0.44 | 0.44 | 89 | 1010.4 |
| 20260510010557 | 48 | 0 | 0.0 | 0.0 | 0.00 | 0.44 | 0.44 | 89 | 1010.4 |
| 20260510010101 | 48 | 0 | 0.0 | 0.0 | 0.00 | 0.44 | 0.44 | 88 | 1010.4 |
| 20260510005555 | 48 | 0 | 0.0 | 0.0 | 0.00 | 0.44 | 0.44 | 88 | 1010.3 |
| 20260510005055 | 48 | 0 | 0.0 | 0.0 | 0.00 | 0.44 | 0.44 | 92 | 1010.2 |
| 20260510004558 | 49 | 0 | 0.0 | 0.0 | 0.00 | 0.44 | 0.44 | 88 | 1010.0 |
| 20260510004056 | 49 | 0 | 0.0 | 0.0 | 0.00 | 0.44 | 0.44 | 88 | 1009.9 |
| 20260510003555 | 50 | 0 | 0.0 | 0.0 | 0.00 | 0.44 | 0.44 | 88 | 1009.9 |
| 20260510003100 | 50 | 0 | 0.0 | 0.0 | 0.00 | 0.44 | 0.44 | 88 | 1009.9 |
| 20260510002559 | 50 | 0 | 0.0 | 2.0 | 0.00 | 0.44 | 0.44 | 88 | 1009.8 |
| 20260510002055 | 51 | 0 | 0.0 | 2.0 | 0.00 | 0.44 | 0.44 | 88 | 1009.7 |
| 20260510001606 | 51 | 0 | 0.0 | 0.0 | 0.00 | 0.44 | 0.44 | 87 | 1009.6 |
| 20260510001056 | 51 | 0 | 0.0 | 2.0 | 0.00 | 0.44 | 0.44 | 87 | 1009.7 |
| 20260510000558 | 52 | 0 | 0.0 | 3.0 | 0.00 | 0.44 | 0.44 | 87 | 1009.6 |
| 20260510000057 | 52 | 0 | 0.0 | 3.0 | 0.00 | 0.44 | 0.44 | 88 | 1009.6 |
| 20260509235555 | 52 | 43 | 0.0 | 3.0 | 0.00 | 0.44 | 0.44 | 87 | 1009.7 |
| 20260509235056 | 53 | 0 | 0.0 | 3.0 | 0.00 | 0.44 | 0.44 | 87 | 1009.7 |
| 20260509234555 | 53 | 0 | 0.0 | 2.0 | 0.00 | 0.44 | 0.44 | 87 | 1009.8 |
| 20260509234055 | 53 | 0 | 0.0 | 2.0 | 0.00 | 0.44 | 0.44 | 87 | 1009.7 |
| 20260509233556 | 54 | 0 | 0.0 | 2.0 | 0.00 | 0.44 | 0.44 | 87 | 1009.6 |
| 20260509233058 | 54 | 0 | 0.0 | 2.0 | 0.00 | 0.44 | 0.44 | 87 | 1009.5 |
| 20260509232555 | 54 | 0 | 0.0 | 2.0 | 0.00 | 0.44 | 0.44 | 86 | 1009.6 |
| 20260509232055 | 54 | 0 | 0.0 | 3.0 | 0.00 | 0.44 | 0.44 | 86 | 1009.6 |
| 20260509231604 | 55 | 0 | 0.0 | 3.0 | 0.00 | 0.44 | 0.44 | 86 | 1009.4 |
| 20260509231056 | 55 | 0 | 0.0 | 5.0 | 0.00 | 0.44 | 0.44 | 85 | 1009.5 |
| 20260509230555 | 56 | 0 | 1.0 | 5.0 | 0.00 | 0.44 | 0.44 | 85 | 1009.4 |
| 20260509230058 | 56 | 0 | 1.0 | 5.0 | 0.00 | 0.44 | 0.44 | 85 | 1009.4 |
| 20260509225556 | 56 | 104 | 0.0 | 3.0 | 0.00 | 0.44 | 0.44 | 85 | 1009.4 |
| 20260509225056 | 56 | 105 | 0.0 | 2.0 | 0.00 | 0.44 | 0.44 | 84 | 1009.4 |
| 20260509224556 | 56 | 0 | 0.0 | 2.0 | 0.00 | 0.44 | 0.44 | 85 | 1009.4 |
| 20260509224055 | 56 | 0 | 0.0 | 0.0 | 0.00 | 0.44 | 0.44 | 86 | 1009.5 |
| 20260509223555 | 56 | 0 | 0.0 | 0.0 | 0.00 | 0.44 | 0.44 | 86 | 1009.5 |
| 20260509223055 | 56 | 0 | 0.0 | 2.0 | 0.00 | 0.44 | 0.44 | 86 | 1009.5 |
| 20260509222556 | 56 | 0 | 0.0 | 2.0 | 0.00 | 0.44 | 0.44 | 86 | 1009.6 |
| 20260509222055 | 56 | 0 | 0.0 | 2.0 | 0.00 | 0.44 | 0.44 | 85 | 1009.6 |
| 20260509221557 | 56 | 0 | 0.0 | 2.0 | 0.00 | 0.44 | 0.44 | 85 | 1009.5 |
| 20260509221056 | 56 | 0 | 0.0 | 1.0 | 0.00 | 0.44 | 0.44 | 85 | 1009.4 |
| 20260509220557 | 56 | 0 | 0.0 | 2.0 | 0.00 | 0.44 | 0.44 | 86 | 1009.5 |
| 20260509220058 | 56 | 0 | 0.0 | 2.0 | 0.00 | 0.44 | 0.44 | 86 | 1009.5 |
| 20260509215555 | 56 | 0 | 0.0 | 0.0 | 0.00 | 0.44 | 0.44 | 85 | 1009.5 |
| 20260509215056 | 56 | 0 | 0.0 | 0.0 | 0.00 | 0.44 | 0.44 | 84 | 1009.7 |
| 20260509214558 | 56 | 0 | 0.0 | 3.0 | 0.00 | 0.44 | 0.44 | 84 | 1009.7 |
| 20260509214055 | 56 | 0 | 0.0 | 3.0 | 0.00 | 0.44 | 0.44 | 83 | 1009.7 |
| 20260509213555 | 56 | 0 | 0.0 | 5.0 | 0.01 | 0.44 | 0.44 | 84 | 1009.8 |
| 20260509213111 | 57 | 253 | 0.0 | 5.0 | 0.01 | 0.44 | 0.44 | 87 | 1009.8 |
| 20260509212556 | 56 | 0 | 1.0 | 4.0 | 0.01 | 0.44 | 0.44 | 84 | 1009.8 |
| 20260509212055 | 57 | 0 | 0.0 | 3.0 | 0.07 | 0.44 | 0.44 | 87 | 1009.8 |
| 20260509211605 | 56 | 0 | 0.0 | 3.0 | 0.08 | 0.44 | 0.44 | 85 | 1009.8 |
| 20260509211056 | 56 | 209 | 0.0 | 2.0 | 0.09 | 0.44 | 0.44 | 88 | 1009.8 |
| 20260509210556 | 55 | 0 | 0.0 | 2.0 | 0.09 | 0.44 | 0.44 | 89 | 1009.8 |
| 20260509210104 | 54 | 0 | 0.0 | 0.0 | 0.09 | 0.44 | 0.44 | 90 | 1009.7 |
| 20260509205558 | 53 | 0 | 0.0 | 0.0 | 0.09 | 0.44 | 0.44 | 90 | 1009.7 |
| 20260509205055 | 53 | 0 | 0.0 | 0.0 | 0.10 | 0.44 | 0.44 | 90 | 1009.6 |
| 20260509204555 | 53 | 0 | 0.0 | 0.0 | 0.11 | 0.44 | 0.44 | 89 | 1009.8 |
| 20260509204056 | 53 | 0 | 0.0 | 0.0 | 0.12 | 0.44 | 0.44 | 89 | 1009.7 |
| 20260509203556 | 53 | 0 | 0.0 | 0.0 | 0.12 | 0.43 | 0.43 | 89 | 1009.8 |
| 20260509203100 | 53 | 0 | 0.0 | 0.0 | 0.13 | 0.43 | 0.43 | 89 | 1009.9 |
| 20260509202555 | 53 | 0 | 0.0 | 0.0 | 0.15 | 0.43 | 0.43 | 89 | 1009.9 |
| 20260509202058 | 53 | 0 | 0.0 | 0.0 | 0.10 | 0.37 | 0.37 | 89 | 1010.0 |
| 20260509201605 | 53 | 0 | 0.0 | 0.0 | 0.11 | 0.36 | 0.36 | 89 | 1009.8 |
| 20260509201055 | 53 | 0 | 0.0 | 0.0 | 0.11 | 0.35 | 0.35 | 89 | 1009.8 |
| 20260509200559 | 53 | 0 | 0.0 | 0.0 | 0.12 | 0.35 | 0.35 | 89 | 1009.9 |
| 20260509200100 | 53 | 0 | 0.0 | 1.0 | 0.13 | 0.35 | 0.35 | 89 | 1010.0 |
| 20260509195559 | 53 | 0 | 0.0 | 1.0 | 0.14 | 0.35 | 0.35 | 89 | 1010.0 |
| 20260509195055 | 53 | 0 | 0.0 | 4.0 | 0.14 | 0.34 | 0.34 | 89 | 1010.2 |
| 20260509194602 | 53 | 0 | 0.0 | 4.0 | 0.13 | 0.33 | 0.33 | 89 | 1010.4 |
| 20260509194058 | 52 | 0 | 0.0 | 3.0 | 0.13 | 0.32 | 0.32 | 88 | 1010.3 |
| 20260509193556 | 53 | 0 | 0.0 | 5.0 | 0.13 | 0.31 | 0.31 | 88 | 1010.8 |
| 20260509193059 | 53 | 0 | 1.0 | 5.0 | 0.13 | 0.30 | 0.30 | 88 | 1010.9 |
| 20260509192555 | 53 | 0 | 0.0 | 5.0 | 0.12 | 0.28 | 0.28 | 88 | 1011.2 |
| 20260509192055 | 53 | 0 | 0.0 | 4.0 | 0.12 | 0.26 | 0.26 | 88 | 1011.1 |
| 20260509191607 | 53 | 0 | 0.0 | 4.0 | 0.12 | 0.25 | 0.25 | 88 | 1011.2 |
| 20260509191056 | 53 | 0 | 0.0 | 3.0 | 0.12 | 0.24 | 0.24 | 88 | 1011.1 |
| 20260509190559 | 53 | 0 | 0.0 | 3.0 | 0.12 | 0.23 | 0.23 | 88 | 1011.1 |
| 20260509190057 | 53 | 0 | 0.0 | 4.0 | 0.11 | 0.22 | 0.22 | 88 | 1011.3 |
| 20260509185556 | 54 | 0 | 0.0 | 4.0 | 0.11 | 0.21 | 0.21 | 88 | 1011.1 |
| 20260509185056 | 54 | 0 | 0.0 | 4.0 | 0.11 | 0.20 | 0.20 | 88 | 1011.3 |
| 20260509184606 | 54 | 0 | 0.0 | 4.0 | 0.11 | 0.20 | 0.20 | 88 | 1011.3 |
| 20260509184058 | 54 | 0 | 0.0 | 4.0 | 0.11 | 0.19 | 0.19 | 88 | 1011.3 |
| 20260509183559 | 54 | 0 | 0.0 | 4.0 | 0.12 | 0.18 | 0.18 | 88 | 1011.4 |
| 20260509183100 | 54 | 0 | 0.0 | 3.0 | 0.11 | 0.17 | 0.17 | 88 | 1011.4 |
| 20260509182555 | 54 | 0 | 0.0 | 2.0 | 0.11 | 0.16 | 0.16 | 87 | 1011.4 |
| 20260509182058 | 54 | 0 | 0.0 | 2.0 | 0.10 | 0.14 | 0.14 | 87 | 1011.2 |
| 20260509181605 | 55 | 0 | 0.0 | 2.0 | 0.10 | 0.13 | 0.13 | 87 | 1011.2 |
| 20260509181056 | 55 | 46 | 0.0 | 0.0 | 0.09 | 0.12 | 0.12 | 87 | 1011.1 |
| 20260509180556 | 55 | 0 | 0.0 | 1.0 | 0.09 | 0.11 | 0.11 | 87 | 1011.1 |
| 20260509180115 | 55 | 0 | 0.0 | 1.0 | 0.09 | 0.11 | 0.11 | 86 | 1011.0 |
| 20260509175555 | 55 | 0 | 0.0 | 3.0 | 0.08 | 0.10 | 0.10 | 86 | 1010.9 |
| 20260509175056 | 55 | 0 | 0.0 | 3.0 | 0.07 | 0.09 | 0.09 | 86 | 1011.0 |
| 20260509174557 | 55 | 0 | 0.0 | 2.0 | 0.07 | 0.09 | 0.09 | 85 | 1011.3 |
| 20260509174056 | 55 | 0 | 0.0 | 2.0 | 0.07 | 0.08 | 0.08 | 85 | 1011.4 |
| 20260509173555 | 55 | 0 | 0.0 | 2.0 | 0.05 | 0.06 | 0.06 | 84 | 1011.6 |
| 20260509173106 | 56 | 0 | 0.0 | 6.0 | 0.05 | 0.06 | 0.06 | 84 | 1011.5 |
| 20260509172556 | 56 | 0 | 0.0 | 6.0 | 0.03 | 0.04 | 0.04 | 82 | 1011.4 |
| 20260509172055 | 56 | 226 | 0.0 | 6.0 | 0.03 | 0.04 | 0.04 | 82 | 1011.6 |
| 20260509171557 | 57 | 0 | 1.0 | 9.0 | 0.02 | 0.03 | 0.03 | 81 | 1011.6 |
| 20260509171055 | 57 | 0 | 0.0 | 9.0 | 0.02 | 0.03 | 0.03 | 80 | 1011.6 |
| 20260509170557 | 58 | 208 | 2.0 | 9.0 | 0.01 | 0.02 | 0.02 | 79 | 1011.5 |
| 20260509170106 | 58 | 0 | 0.0 | 7.0 | 0.01 | 0.02 | 0.02 | 80 | 1011.4 |
| 20260509165555 | 58 | 256 | 0.0 | 4.0 | 0.01 | 0.02 | 0.02 | 79 | 1011.2 |
| 20260509165056 | 58 | 0 | 0.0 | 3.0 | 0.01 | 0.02 | 0.02 | 79 | 1011.3 |
| 20260509164557 | 58 | 0 | 0.0 | 5.0 | 0.01 | 0.02 | 0.02 | 78 | 1011.4 |
| 20260509164055 | 58 | 0 | 0.0 | 8.0 | 0.00 | 0.01 | 0.01 | 77 | 1011.5 |
| 20260509163559 | 59 | 0 | 1.0 | 8.0 | 0.00 | 0.01 | 0.01 | 76 | 1011.4 |
| 20260509163105 | 59 | 184 | 0.0 | 8.0 | 0.00 | 0.01 | 0.01 | 76 | 1011.4 |
| 20260509162555 | 59 | 0 | 2.0 | 8.0 | 0.00 | 0.01 | 0.01 | 74 | 1011.4 |
| 20260509162055 | 59 | 0 | 2.0 | 7.0 | 0.00 | 0.01 | 0.01 | 77 | 1011.4 |
| 20260509161605 | 59 | 0 | 1.0 | 9.0 | 0.00 | 0.01 | 0.01 | 76 | 1011.4 |
| 20260509161058 | 58 | 113 | 1.0 | 10.0 | 0.00 | 0.01 | 0.01 | 76 | 1011.6 |
| 20260509160556 | 59 | 0 | 2.0 | 10.0 | 0.00 | 0.01 | 0.01 | 77 | 1011.6 |
| 20260509155555 | 59 | 188 | 3.0 | 9.0 | 0.00 | 0.01 | 0.01 | 75 | 1011.5 |
| 20260509155055 | 59 | 0 | 0.0 | 4.0 | 0.00 | 0.01 | 0.01 | 77 | 1011.5 |
| 20260509154600 | 59 | 0 | 1.0 | 5.0 | 0.00 | 0.01 | 0.01 | 80 | 1011.5 |
| 20260509154056 | 58 | 244 | 1.0 | 5.0 | 0.00 | 0.01 | 0.01 | 77 | 1011.4 |
| 20260509153555 | 57 | 0 | 0.0 | 2.0 | 0.00 | 0.01 | 0.01 | 81 | 1011.5 |